Warren, New York
Current Conditions -  °F | °C
As of 3:53 AM on Friday 28 Nov 2014 (Local Time) from KRME Reporting Station
Overcast Overcast  
Wind Chill: 19°   Ceiling: 3400
Heat Index: 27°   Visibility: 10mi
Dew Point: 24°   Wind: 7mph
Humidity: 89%   Direction: 290°WNW
Pressure: 30.11"   Gusts: NA
Location:  42.8523°N, 74.9958°W
Report Text: KRME 280853Z AUTO 29006KT 10SM FEW028 OVC034 M03/M04 A3011 RMK AO2 SLP200 T10281044 53017
Loading
Personal Weather Stations






























Interactive Weather Map New forecast layout! Learn more

10-Day Weather Forecast

Advertisements
Track Severe Weather on mobile